createdAt,value
2022-11-29T00:01:36.938Z,14.17
2022-11-29T00:04:05.515Z,14.70
2022-11-29T00:06:36.538Z,15.77
2022-11-29T00:09:07.634Z,13.00
2022-11-29T00:11:54.384Z,13.00
2022-11-29T00:14:23.357Z,12.30
2022-11-29T00:16:52.941Z,11.90
2022-11-29T00:19:21.133Z,14.13
2022-11-29T00:21:50.665Z,13.50
2022-11-29T00:24:19.024Z,16.33
2022-11-29T00:26:47.184Z,16.37
2022-11-29T00:29:15.349Z,15.40
2022-11-29T00:31:43.810Z,15.90
2022-11-29T00:34:13.451Z,15.80
2022-11-29T00:36:42.121Z,16.80
2022-11-29T00:39:12.359Z,14.93
2022-11-29T00:41:40.836Z,20.37
2022-11-29T00:44:08.979Z,20.30
2022-11-29T00:46:37.181Z,18.43
2022-11-29T00:49:06.035Z,17.50
2022-11-29T00:51:34.344Z,18.33
2022-11-29T00:54:02.472Z,17.50
2022-11-29T00:56:32.039Z,18.97
2022-11-29T00:59:00.113Z,17.73
2022-11-29T01:01:28.181Z,17.17
2022-11-29T01:03:56.240Z,17.30
2022-11-29T01:06:24.307Z,18.00
2022-11-29T01:08:52.424Z,14.00
2022-11-29T01:11:22.540Z,14.43
2022-11-29T01:13:55.305Z,14.97
2022-11-29T01:16:23.776Z,15.03
2022-11-29T01:18:52.128Z,15.43
2022-11-29T01:21:21.704Z,17.23
2022-11-29T01:23:54.087Z,16.63
2022-11-29T01:26:24.022Z,15.60
2022-11-29T01:28:54.513Z,16.67
2022-11-29T01:31:24.622Z,15.43
2022-11-29T01:33:54.728Z,15.80
2022-11-29T01:36:23.618Z,17.87
2022-11-29T01:38:52.144Z,16.67
2022-11-29T01:41:21.803Z,16.43
2022-11-29T01:43:59.824Z,15.93
2022-11-29T01:46:28.670Z,15.67
2022-11-29T01:49:01.240Z,14.67
2022-11-29T01:51:29.811Z,14.30
2022-11-29T01:53:58.160Z,15.60
2022-11-29T01:56:26.720Z,14.00
2022-11-29T01:58:56.163Z,15.33
2022-11-29T02:01:24.951Z,13.93
2022-11-29T02:03:53.045Z,13.47
2022-11-29T02:06:21.196Z,12.77
2022-11-29T02:08:49.268Z,12.90
2022-11-29T02:11:49.270Z,14.13
2022-11-29T02:14:30.438Z,12.37
2022-11-29T02:17:02.902Z,11.10
2022-11-29T02:19:56.198Z,12.27
2022-11-29T02:22:26.217Z,12.70
2022-11-29T02:25:10.257Z,10.43
2022-11-29T02:28:11.237Z,11.93
2022-11-29T02:30:56.626Z,11.33
2022-11-29T02:33:41.317Z,9.97
2022-11-29T02:36:35.520Z,11.70
2022-11-29T02:39:38.980Z,11.37
2022-11-29T02:42:22.330Z,10.50
2022-11-29T02:45:03.904Z,9.53
2022-11-29T02:47:44.366Z,11.53
2022-11-29T02:50:33.528Z,10.63
2022-11-29T02:53:06.120Z,10.53
2022-11-29T02:55:39.844Z,11.13
2022-11-29T02:58:15.904Z,11.70
2022-11-29T03:00:49.895Z,12.03
2022-11-29T03:03:23.906Z,9.03
2022-11-29T03:05:58.604Z,10.27
2022-11-29T03:08:33.015Z,10.37
2022-11-29T03:11:04.076Z,12.73
2022-11-29T03:13:43.257Z,9.70
2022-11-29T03:16:20.080Z,10.97
2022-11-29T03:19:01.410Z,10.70
2022-11-29T03:21:41.968Z,11.60
2022-11-29T03:24:15.830Z,9.70
2022-11-29T03:26:47.438Z,10.77
2022-11-29T03:29:22.288Z,9.90
2022-11-29T03:31:55.419Z,11.20
2022-11-29T03:34:33.941Z,12.50
2022-11-29T03:37:11.223Z,13.77
2022-11-29T03:39:48.924Z,12.77
2022-11-29T03:42:21.144Z,12.90
2022-11-29T03:44:54.137Z,12.33
2022-11-29T03:47:27.439Z,11.97
2022-11-29T03:49:59.075Z,13.00
2022-11-29T03:52:33.524Z,11.63
2022-11-29T03:55:13.117Z,11.20
2022-11-29T03:57:52.347Z,12.40
2022-11-29T04:00:21.309Z,11.40
2022-11-29T04:03:21.956Z,10.50
2022-11-29T04:06:13.929Z,10.30
2022-11-29T04:09:12.395Z,10.43
2022-11-29T04:11:59.254Z,9.90
2022-11-29T04:14:34.986Z,11.80
2022-11-29T04:17:34.567Z,11.80
2022-11-29T04:20:48.014Z,11.67
2022-11-29T04:23:40.983Z,11.43
2022-11-29T04:26:34.641Z,10.70
2022-11-29T04:29:26.027Z,11.40
2022-11-29T04:32:14.652Z,13.70
2022-11-29T04:35:07.898Z,11.20
2022-11-29T04:37:59.750Z,13.50
2022-11-29T04:40:45.990Z,10.37
2022-11-29T04:43:25.350Z,11.20
2022-11-29T04:46:12.339Z,10.83
2022-11-29T04:49:00.732Z,10.57
2022-11-29T04:51:40.247Z,12.03
2022-11-29T04:54:11.365Z,13.93
2022-11-29T04:56:44.224Z,10.67
2022-11-29T04:59:17.372Z,10.77
2022-11-29T05:01:56.263Z,12.07
2022-11-29T05:04:27.859Z,13.03
2022-11-29T05:07:03.169Z,12.20
2022-11-29T05:09:40.753Z,13.27
2022-11-29T05:12:13.449Z,12.60
2022-11-29T05:14:56.471Z,12.07
2022-11-29T05:17:34.296Z,11.27
2022-11-29T05:20:15.965Z,11.57
2022-11-29T05:22:52.463Z,12.10
2022-11-29T05:25:33.850Z,12.87
2022-11-29T05:28:09.987Z,13.30
2022-11-29T05:30:55.679Z,11.97
2022-11-29T05:33:39.130Z,11.93
2022-11-29T05:36:15.038Z,13.73
2022-11-29T05:38:57.206Z,13.23
2022-11-29T05:41:35.876Z,12.23
2022-11-29T05:44:08.866Z,13.20
2022-11-29T05:46:47.025Z,12.40
2022-11-29T05:49:22.194Z,13.47
2022-11-29T05:51:57.480Z,13.70
2022-11-29T05:54:29.751Z,13.63
2022-11-29T05:57:04.748Z,14.20
2022-11-29T05:59:34.516Z,14.20
2022-11-29T06:02:12.145Z,13.80
2022-11-29T06:04:51.191Z,13.07
2022-11-29T06:07:23.267Z,12.60
2022-11-29T06:10:01.675Z,14.87
2022-11-29T06:12:31.142Z,13.37
2022-11-29T06:15:28.106Z,14.37
2022-11-29T06:18:23.783Z,14.53
2022-11-29T06:21:02.981Z,14.57
2022-11-29T06:23:43.912Z,11.70
2022-11-29T06:26:29.269Z,13.60
2022-11-29T06:29:04.535Z,12.70
2022-11-29T06:31:38.134Z,10.83
2022-11-29T06:34:13.225Z,14.67
2022-11-29T06:36:44.034Z,12.60
2022-11-29T06:39:13.088Z,16.13
2022-11-29T06:41:41.698Z,16.77
2022-11-29T06:44:11.671Z,17.37
2022-11-29T06:46:46.712Z,15.17
2022-11-29T06:49:23.062Z,17.07
2022-11-29T06:52:12.056Z,17.90
2022-11-29T06:54:49.988Z,18.20
2022-11-29T06:57:21.986Z,16.50
2022-11-29T06:59:59.731Z,17.50
2022-11-29T07:02:46.320Z,16.13
2022-11-29T07:05:22.879Z,17.00
2022-11-29T07:07:51.833Z,16.33
2022-11-29T07:10:21.202Z,16.20
2022-11-29T07:12:51.412Z,16.70
2022-11-29T07:15:22.358Z,16.60
2022-11-29T07:18:04.459Z,16.60
2022-11-29T07:20:39.991Z,15.40
2022-11-29T07:23:15.283Z,17.00
2022-11-29T07:25:52.914Z,15.20
2022-11-29T07:28:30.157Z,14.10
2022-11-29T07:31:03.655Z,14.53
2022-11-29T07:33:38.035Z,14.70
2022-11-29T07:36:12.853Z,13.97
2022-11-29T07:38:54.283Z,15.43
2022-11-29T07:41:27.168Z,17.70
2022-11-29T07:44:01.033Z,14.73
2022-11-29T07:46:29.442Z,16.23
2022-11-29T07:48:57.540Z,15.07
2022-11-29T07:51:27.419Z,16.47
2022-11-29T07:53:55.585Z,15.60
2022-11-29T07:56:23.667Z,13.80
2022-11-29T07:58:51.794Z,12.87
2022-11-29T08:01:20.006Z,13.73
2022-11-29T08:03:48.126Z,14.40
2022-11-29T08:06:16.196Z,13.80
2022-11-29T08:08:45.694Z,13.60
2022-11-29T08:11:14.317Z,12.00
2022-11-29T08:13:42.404Z,13.30
2022-11-29T08:16:10.718Z,13.50
2022-11-29T08:18:38.944Z,14.70
2022-11-29T08:21:07.985Z,14.20
2022-11-29T08:23:38.307Z,14.33
2022-11-29T08:26:07.890Z,15.40
2022-11-29T08:28:35.957Z,14.20
2022-11-29T08:31:08.916Z,13.43
2022-11-29T08:33:37.519Z,14.83
2022-11-29T08:36:07.423Z,14.90
2022-11-29T08:38:35.751Z,15.90
2022-11-29T08:41:03.951Z,14.50
2022-11-29T08:43:33.741Z,15.30
2022-11-29T08:46:01.979Z,16.70
2022-11-29T08:48:30.110Z,13.87
2022-11-29T08:50:58.718Z,14.50
2022-11-29T08:53:42.020Z,14.80
2022-11-29T08:56:41.919Z,16.27
2022-11-29T08:59:00.438Z,15.10
2022-11-29T09:01:29.379Z,15.07
2022-11-29T09:04:03.104Z,24.13
2022-11-29T09:06:33.879Z,19.87
2022-11-29T09:09:02.349Z,19.43
2022-11-29T09:11:31.128Z,17.00
2022-11-29T09:14:02.463Z,15.53
2022-11-29T09:16:32.177Z,15.43
2022-11-29T09:19:00.279Z,16.87
2022-11-29T09:21:30.319Z,18.50
2022-11-29T09:24:00.318Z,14.67
2022-11-29T09:26:30.381Z,15.07
2022-11-29T09:29:01.687Z,14.73
2022-11-29T09:31:30.607Z,15.77
2022-11-29T09:33:58.810Z,17.27
2022-11-29T09:36:29.203Z,14.70
2022-11-29T09:38:57.886Z,16.10
2022-11-29T09:41:50.187Z,15.10
2022-11-29T09:44:23.778Z,14.30
2022-11-29T09:46:59.023Z,14.63
2022-11-29T09:49:51.981Z,13.90
2022-11-29T09:52:29.001Z,14.20
2022-11-29T09:55:02.274Z,14.83
2022-11-29T09:57:31.186Z,17.23
2022-11-29T10:00:05.059Z,15.53
2022-11-29T10:02:38.454Z,14.20
2022-11-29T10:05:12.111Z,14.90
2022-11-29T10:07:43.112Z,13.80
2022-11-29T10:10:18.295Z,15.23
2022-11-29T10:12:49.849Z,16.43
2022-11-29T10:15:22.983Z,17.57
2022-11-29T10:17:54.833Z,17.17
2022-11-29T10:20:24.495Z,16.50
2022-11-29T10:22:56.444Z,18.00
2022-11-29T10:25:27.034Z,17.63
2022-11-29T10:27:55.605Z,16.83
2022-11-29T10:30:25.178Z,17.77
2022-11-29T10:32:57.448Z,16.13
2022-11-29T10:35:25.940Z,18.00
2022-11-29T10:38:29.028Z,17.00
2022-11-29T10:40:48.485Z,15.50
2022-11-29T10:43:19.591Z,15.30
2022-11-29T10:45:53.512Z,17.63
2022-11-29T10:48:23.825Z,22.73
2022-11-29T10:50:53.302Z,21.57
2022-11-29T10:53:24.767Z,20.23
2022-11-29T10:55:57.481Z,18.57
2022-11-29T10:58:29.141Z,18.37
2022-11-29T11:01:01.023Z,16.33
2022-11-29T11:03:34.428Z,16.43
2022-11-29T11:06:09.444Z,17.30
2022-11-29T11:08:39.587Z,17.70
2022-11-29T11:11:08.838Z,15.80
2022-11-29T11:13:39.448Z,16.43
2022-11-29T11:16:17.847Z,16.50
2022-11-29T11:18:47.065Z,18.23
2022-11-29T11:21:19.788Z,16.37
2022-11-29T11:23:55.563Z,15.60
2022-11-29T11:26:24.649Z,16.60
2022-11-29T11:28:56.658Z,15.30
2022-11-29T11:31:32.430Z,17.53
2022-11-29T11:34:24.400Z,16.30
2022-11-29T11:36:52.575Z,16.50
2022-11-29T11:39:21.823Z,17.10
2022-11-29T11:42:08.923Z,16.73
2022-11-29T11:44:47.196Z,16.23
2022-11-29T11:47:21.196Z,17.20
2022-11-29T11:49:51.540Z,16.90
2022-11-29T11:52:22.461Z,14.50
2022-11-29T11:54:54.614Z,16.67
2022-11-29T11:57:24.114Z,16.33
2022-11-29T11:59:54.006Z,19.27
2022-11-29T12:02:38.999Z,16.40
2022-11-29T12:05:15.158Z,14.60
2022-11-29T12:10:37.579Z,16.30
2022-11-29T12:13:07.292Z,17.37
2022-11-29T12:15:38.446Z,17.97
2022-11-29T12:18:12.672Z,17.07
2022-11-29T12:20:44.002Z,15.07
2022-11-29T12:23:24.963Z,16.47
2022-11-29T12:25:56.185Z,16.10
2022-11-29T12:28:28.580Z,15.97
2022-11-29T12:31:05.088Z,17.20
2022-11-29T12:33:39.567Z,26.63
2022-11-29T12:36:19.536Z,26.23
2022-11-29T12:39:03.677Z,25.50
2022-11-29T12:41:38.487Z,23.70
2022-11-29T12:44:15.195Z,24.83
2022-11-29T12:46:45.570Z,22.83
2022-11-29T12:49:19.475Z,23.00
2022-11-29T12:51:54.697Z,15.53
2022-11-29T12:54:35.057Z,15.40
2022-11-29T12:57:08.108Z,17.13
2022-11-29T12:59:47.874Z,17.73
2022-11-29T13:02:27.493Z,16.37
2022-11-29T13:05:02.556Z,17.73
2022-11-29T13:07:38.603Z,14.80
2022-11-29T13:10:21.002Z,18.10
2022-11-29T13:12:50.961Z,14.97
2022-11-29T13:15:20.897Z,16.20
2022-11-29T13:17:54.232Z,14.40
2022-11-29T13:20:34.118Z,15.17
2022-11-29T13:23:12.306Z,14.00
2022-11-29T13:25:42.570Z,16.17
2022-11-29T13:28:15.200Z,15.53
2022-11-29T13:30:43.605Z,16.57
2022-11-29T13:33:17.666Z,15.80
2022-11-29T13:35:49.752Z,18.07
2022-11-29T13:38:21.091Z,18.10
2022-11-29T13:40:55.648Z,15.10
2022-11-29T13:43:30.909Z,15.47
2022-11-29T13:46:04.409Z,14.87
2022-11-29T13:48:37.193Z,17.57
2022-11-29T13:51:34.788Z,15.33
2022-11-29T13:54:04.366Z,16.73
2022-11-29T13:56:42.748Z,16.20
2022-11-29T13:59:18.540Z,15.97
2022-11-29T14:01:48.966Z,17.23
2022-11-29T14:04:30.688Z,16.57
2022-11-29T14:07:09.918Z,16.03
2022-11-29T14:09:43.838Z,18.03
2022-11-29T14:12:31.102Z,16.57
2022-11-29T14:15:02.268Z,17.03
2022-11-29T14:17:37.356Z,16.37
2022-11-29T14:20:51.189Z,18.77
2022-11-29T14:23:33.145Z,18.40
2022-11-29T14:26:30.204Z,20.47
2022-11-29T14:28:59.654Z,17.43
2022-11-29T14:31:55.595Z,20.07
2022-11-29T14:34:35.926Z,19.43
2022-11-29T14:37:10.234Z,20.97
2022-11-29T14:39:44.348Z,18.27
2022-11-29T14:42:18.794Z,21.50
2022-11-29T14:44:51.105Z,20.60
2022-11-29T14:47:24.785Z,21.03
2022-11-29T14:49:54.926Z,20.50
2022-11-29T14:52:29.307Z,16.67
2022-11-29T14:55:01.653Z,19.37
2022-11-29T14:58:06.313Z,17.10
2022-11-29T15:00:53.141Z,21.17
2022-11-29T15:03:28.845Z,19.70
2022-11-29T15:06:02.809Z,24.20
2022-11-29T15:08:36.000Z,22.90
2022-11-29T15:11:17.759Z,31.73
2022-11-29T15:13:52.574Z,30.50
2022-11-29T15:16:33.071Z,34.47
2022-11-29T15:19:31.317Z,49.57
2022-11-29T15:22:03.880Z,41.17
2022-11-29T15:24:31.981Z,37.97
2022-11-29T15:27:03.304Z,32.57
2022-11-29T15:29:32.800Z,28.60
2022-11-29T15:32:03.083Z,29.77
2022-11-29T15:34:35.579Z,25.03
2022-11-29T15:37:04.051Z,21.90
2022-11-29T15:39:34.035Z,19.30
2022-11-29T15:42:05.951Z,19.10
2022-11-29T15:44:34.153Z,17.67
2022-11-29T15:47:20.667Z,16.13
2022-11-29T15:49:48.829Z,16.00
2022-11-29T15:52:21.145Z,15.20
2022-11-29T15:54:52.065Z,15.97
2022-11-29T15:57:25.815Z,17.60
2022-11-29T15:59:55.610Z,17.20
2022-11-29T16:02:25.593Z,17.63
2022-11-29T16:04:57.745Z,18.70
2022-11-29T16:07:32.561Z,16.27
2022-11-29T16:10:04.142Z,17.60
2022-11-29T16:12:41.087Z,16.40
2022-11-29T16:15:30.471Z,15.50
2022-11-29T16:18:05.088Z,15.97
2022-11-29T16:20:38.526Z,15.37
2022-11-29T16:23:16.941Z,16.80
2022-11-29T16:25:57.833Z,14.77
2022-11-29T16:28:33.652Z,16.83
2022-11-29T16:31:02.091Z,16.43
2022-11-29T16:33:30.365Z,14.10
2022-11-29T16:36:06.350Z,13.27
2022-11-29T16:38:34.485Z,14.10
2022-11-29T16:41:05.686Z,13.47
2022-11-29T16:43:55.525Z,13.30
2022-11-29T16:46:32.616Z,15.40
2022-11-29T16:49:02.689Z,16.87
2022-11-29T16:51:39.891Z,16.60
2022-11-29T16:54:22.652Z,14.77
2022-11-29T16:56:51.829Z,15.33
2022-11-29T16:59:26.753Z,16.40
2022-11-29T17:01:56.736Z,16.87
2022-11-29T17:04:25.371Z,15.50
2022-11-29T17:06:54.690Z,15.53
2022-11-29T17:09:27.535Z,15.67
2022-11-29T17:11:56.479Z,13.70
2022-11-29T17:14:26.068Z,13.63
2022-11-29T17:16:54.364Z,13.77
2022-11-29T17:19:23.825Z,13.93
2022-11-29T17:21:53.086Z,12.80
2022-11-29T17:24:22.628Z,13.37
2022-11-29T17:26:53.297Z,14.70
2022-11-29T17:29:21.428Z,13.53
2022-11-29T17:31:53.312Z,13.70
2022-11-29T17:34:21.825Z,13.67
2022-11-29T17:36:50.103Z,12.30
2022-11-29T17:39:20.305Z,14.10
2022-11-29T17:41:48.477Z,12.77
2022-11-29T17:44:16.720Z,12.70
2022-11-29T17:46:44.850Z,15.70
2022-11-29T17:49:14.344Z,13.90
2022-11-29T17:51:52.802Z,12.73
2022-11-29T17:54:22.237Z,11.93
2022-11-29T17:56:53.359Z,12.10
2022-11-29T17:59:23.530Z,13.77
2022-11-29T18:01:52.318Z,13.00
2022-11-29T18:04:22.614Z,12.00
2022-11-29T18:06:50.720Z,12.40
2022-11-29T18:09:19.870Z,12.37
2022-11-29T18:11:49.861Z,11.47
2022-11-29T18:14:20.278Z,13.53
2022-11-29T18:16:48.674Z,11.27
2022-11-29T18:19:18.549Z,12.77
2022-11-29T18:21:49.011Z,13.83
2022-11-29T18:24:17.193Z,14.33
2022-11-29T18:26:45.438Z,14.00
2022-11-29T18:29:13.565Z,15.07
2022-11-29T18:31:43.176Z,13.43
2022-11-29T18:34:13.205Z,14.27
2022-11-29T18:36:45.048Z,13.20
2022-11-29T18:39:16.138Z,14.40
2022-11-29T18:41:48.619Z,15.10
2022-11-29T18:44:18.039Z,16.67
2022-11-29T18:46:46.981Z,18.00
2022-11-29T18:49:16.935Z,14.87
2022-11-29T18:51:46.179Z,12.43
2022-11-29T18:54:16.240Z,13.30
2022-11-29T18:56:45.174Z,14.33
2022-11-29T18:59:16.770Z,12.80
2022-11-29T19:01:46.725Z,12.50
2022-11-29T19:04:16.486Z,13.03
2022-11-29T19:06:44.841Z,14.40
2022-11-29T19:09:19.394Z,13.10
2022-11-29T19:11:48.717Z,15.00
2022-11-29T19:14:17.022Z,12.33
2022-11-29T19:16:47.912Z,13.03
2022-11-29T19:19:18.763Z,14.07
2022-11-29T19:21:46.861Z,15.20
2022-11-29T19:24:18.116Z,15.40
2022-11-29T19:26:47.715Z,14.17
2022-11-29T19:29:16.493Z,12.97
2022-11-29T19:31:44.603Z,15.20
2022-11-29T19:34:14.340Z,15.50
2022-11-29T19:36:44.531Z,12.00
2022-11-29T19:39:14.650Z,14.03
2022-11-29T19:41:45.518Z,13.83
2022-11-29T19:44:13.834Z,14.70
2022-11-29T19:46:43.654Z,13.57
2022-11-29T19:49:14.996Z,12.50
2022-11-29T19:51:45.310Z,12.97
2022-11-29T19:54:13.882Z,12.67
2022-11-29T19:56:43.670Z,12.77
2022-11-29T19:59:15.421Z,14.53
2022-11-29T20:01:43.912Z,17.87
2022-11-29T20:04:14.053Z,18.33
2022-11-29T20:06:43.072Z,16.93
2022-11-29T20:09:11.633Z,17.77
2022-11-29T20:11:39.876Z,15.33
2022-11-29T20:14:11.357Z,15.17
2022-11-29T20:16:39.623Z,14.63
2022-11-29T20:19:11.858Z,14.03
2022-11-29T20:21:43.405Z,14.60
2022-11-29T20:24:12.972Z,18.10
2022-11-29T20:26:43.806Z,19.10
2022-11-29T20:29:14.814Z,16.70
2022-11-29T20:31:49.612Z,17.47
2022-11-29T20:34:18.952Z,20.93
2022-11-29T20:37:30.203Z,20.23
2022-11-29T20:40:05.092Z,16.77
2022-11-29T20:42:44.711Z,17.63
2022-11-29T20:45:17.054Z,15.53
2022-11-29T20:47:50.697Z,15.37
2022-11-29T20:50:24.100Z,14.83
2022-11-29T20:53:03.126Z,15.60
2022-11-29T20:55:31.291Z,15.70
2022-11-29T20:57:59.342Z,16.40
2022-11-29T21:00:29.088Z,17.33
2022-11-29T21:03:01.547Z,17.50
2022-11-29T21:05:29.626Z,19.13
2022-11-29T21:07:57.864Z,18.20
2022-11-29T21:10:26.173Z,16.40
2022-11-29T21:12:57.905Z,18.57
